Terminal Aerodrome Forecast
Issued by NWS

Home | Current Version | Previous Version | Text Only | Print | Product List | Glossary On
Versions: 1 2 3 4 5 6 7 8 9 10 11 12 13 14
000
FTUS42 TJSJ 312300
TAFNCM
TAF
TNCM 312336Z 0100/0124 10006KT P6SM FEW022
     FM010200 10007KT P6SM VCSH SCT018
     FM011500 12013KT P6SM FEW023 SCT250
     FM012200 10011KT P6SM SCT019 SCT030=

USA.gov is the U.S. government's official web portal to all federal, state and local government web resources and services.